createdAt,value
2023-04-18T00:01:04.270Z,11.32
2023-04-18T00:04:09.454Z,10.99
2023-04-18T00:07:15.232Z,11.08
2023-04-18T00:10:19.447Z,11.13
2023-04-18T00:13:25.801Z,11.32
2023-04-18T00:16:31.956Z,11.60
2023-04-18T00:19:37.325Z,11.69
2023-04-18T00:22:41.525Z,11.57
2023-04-18T00:25:45.777Z,11.03
2023-04-18T00:29:15.249Z,11.17
2023-04-18T00:32:17.387Z,11.10
2023-04-18T00:35:21.454Z,11.33
2023-04-18T00:38:25.894Z,11.03
2023-04-18T00:41:33.348Z,10.70
2023-04-18T00:44:47.720Z,10.33
2023-04-18T00:47:53.183Z,10.84
2023-04-18T00:51:19.728Z,10.97
2023-04-18T00:54:21.892Z,11.08
2023-04-18T00:57:36.093Z,10.65
2023-04-18T01:00:40.279Z,11.03
2023-04-18T01:03:43.924Z,10.49
2023-04-18T01:06:50.836Z,10.93
2023-04-18T01:13:13.991Z,10.32
2023-04-18T01:16:18.514Z,10.26
2023-04-18T01:19:22.575Z,9.83
2023-04-18T01:22:26.330Z,10.21
2023-04-18T01:25:30.252Z,10.50
2023-04-18T01:28:38.480Z,10.76
2023-04-18T01:31:42.894Z,10.16
2023-04-18T01:35:03.512Z,10.37
2023-04-18T01:38:07.999Z,10.75
2023-04-18T01:41:15.263Z,11.00
2023-04-18T01:44:19.422Z,10.75
2023-04-18T01:47:23.291Z,10.72
2023-04-18T01:50:27.602Z,10.75
2023-04-18T01:53:31.527Z,11.14
2023-04-18T01:56:36.501Z,11.01
2023-04-18T01:59:40.609Z,10.83
2023-04-18T02:02:47.135Z,10.69
2023-04-18T02:05:52.511Z,10.50
2023-04-18T02:08:59.707Z,10.88
2023-04-18T02:12:04.083Z,10.68
2023-04-18T02:15:09.386Z,11.04
2023-04-18T02:18:13.721Z,11.19
2023-04-18T02:21:21.663Z,11.30
2023-04-18T02:24:25.671Z,11.32
2023-04-18T02:27:30.737Z,11.36
2023-04-18T02:30:34.887Z,11.37
2023-04-18T02:33:38.798Z,10.95
2023-04-18T02:36:44.972Z,10.81
2023-04-18T02:39:50.245Z,10.79
2023-04-18T02:42:54.293Z,11.05
2023-04-18T02:46:02.334Z,11.22
2023-04-18T02:49:06.533Z,11.04
2023-04-18T02:52:10.937Z,11.31
2023-04-18T02:55:14.993Z,10.79
2023-04-18T02:58:23.868Z,11.03
2023-04-18T03:01:28.156Z,10.87
2023-04-18T03:04:33.284Z,10.57
2023-04-18T03:07:37.482Z,10.42
2023-04-18T03:10:42.620Z,10.46
2023-04-18T03:13:48.177Z,10.77
2023-04-18T03:16:55.165Z,11.02
2023-04-18T03:19:59.473Z,10.69
2023-04-18T03:23:09.466Z,11.01
2023-04-18T03:26:13.520Z,11.09
2023-04-18T03:29:18.695Z,10.63
2023-04-18T03:32:23.087Z,10.62
2023-04-18T03:35:27.220Z,10.25
2023-04-18T03:38:31.310Z,10.58
2023-04-18T03:41:35.192Z,10.90
2023-04-18T03:44:40.712Z,10.76
2023-04-18T03:47:44.906Z,10.42
2023-04-18T03:50:49.074Z,10.20
2023-04-18T03:54:00.272Z,10.10
2023-04-18T03:57:05.750Z,10.24
2023-04-18T04:00:12.992Z,10.49
2023-04-18T04:03:18.481Z,9.72
2023-04-18T04:06:22.555Z,9.73
2023-04-18T04:09:26.527Z,9.79
2023-04-18T04:12:32.740Z,10.32
2023-04-18T04:15:38.178Z,10.54
2023-04-18T04:18:43.590Z,9.82
2023-04-18T04:21:47.869Z,9.81
2023-04-18T04:24:51.878Z,9.84
2023-04-18T04:27:55.851Z,10.20
2023-04-18T04:30:59.645Z,9.89
2023-04-18T04:34:03.581Z,9.48
2023-04-18T04:37:07.498Z,9.20
2023-04-18T04:40:14.511Z,9.17
2023-04-18T04:43:19.575Z,9.23
2023-04-18T04:46:23.703Z,9.20
2023-04-18T04:49:27.854Z,9.79
2023-04-18T04:52:31.648Z,9.33
2023-04-18T04:55:37.031Z,9.67
2023-04-18T04:58:41.175Z,10.19
2023-04-18T05:01:45.013Z,10.25
2023-04-18T05:04:49.159Z,10.23
2023-04-18T05:07:54.341Z,9.93
2023-04-18T05:10:59.723Z,9.76
2023-04-18T05:14:05.376Z,9.94
2023-04-18T05:17:10.745Z,9.68
2023-04-18T05:20:15.020Z,10.04
2023-04-18T05:23:19.083Z,9.56
2023-04-18T05:26:22.920Z,9.61
2023-04-18T05:29:27.292Z,9.69
2023-04-18T05:32:31.340Z,9.73
2023-04-18T05:35:34.978Z,10.14
2023-04-18T05:38:40.068Z,10.26
2023-04-18T05:41:44.236Z,10.62
2023-04-18T05:44:52.562Z,10.71
2023-04-18T05:47:59.994Z,10.65
2023-04-18T05:51:04.273Z,10.96
2023-04-18T05:54:08.641Z,11.08
2023-04-18T05:57:12.260Z,11.26
2023-04-18T06:00:16.314Z,11.27
2023-04-18T06:03:20.460Z,11.29
2023-04-18T06:06:26.372Z,11.40
2023-04-18T06:09:30.840Z,11.42
2023-04-18T06:12:34.476Z,11.50
2023-04-18T06:15:38.282Z,11.58
2023-04-18T06:18:46.753Z,11.78
2023-04-18T06:21:50.946Z,11.89
2023-04-18T06:24:56.943Z,11.55
2023-04-18T06:28:01.018Z,11.82
2023-04-18T06:31:05.157Z,12.06
2023-04-18T06:34:31.169Z,11.69
2023-04-18T06:37:34.771Z,11.85
2023-04-18T06:40:38.888Z,12.07
2023-04-18T06:43:52.154Z,12.24
2023-04-18T06:47:05.780Z,11.93
2023-04-18T06:50:10.930Z,12.19
2023-04-18T06:53:15.071Z,11.90
2023-04-18T06:56:19.057Z,12.06
2023-04-18T06:59:24.190Z,12.21
2023-04-18T07:02:29.416Z,12.41
2023-04-18T07:05:35.597Z,12.66
2023-04-18T07:08:43.842Z,12.73
2023-04-18T07:11:52.549Z,12.86
2023-04-18T07:14:57.826Z,12.73
2023-04-18T07:18:03.139Z,12.90
2023-04-18T07:21:07.771Z,12.79
2023-04-18T07:24:12.684Z,12.91
2023-04-18T07:27:18.420Z,13.12
2023-04-18T07:30:22.633Z,13.24
2023-04-18T07:33:49.544Z,13.26
2023-04-18T07:36:54.097Z,13.21
2023-04-18T07:39:58.266Z,12.35
2023-04-18T07:43:04.307Z,12.61
2023-04-18T07:46:08.438Z,12.83
2023-04-18T07:49:15.297Z,12.63
2023-04-18T07:52:19.700Z,12.49
2023-04-18T07:55:23.520Z,12.27
2023-04-18T07:58:30.733Z,12.34
2023-04-18T08:01:34.851Z,12.71
2023-04-18T08:04:40.615Z,13.00
2023-04-18T08:07:44.881Z,12.34
2023-04-18T08:10:48.770Z,12.82
2023-04-18T08:13:52.748Z,12.68
2023-04-18T08:16:56.907Z,12.96
2023-04-18T08:20:00.928Z,12.96
2023-04-18T08:23:08.411Z,12.94
2023-04-18T08:26:13.648Z,13.11
2023-04-18T08:29:17.774Z,13.27
2023-04-18T08:32:22.043Z,13.23
2023-04-18T08:35:25.852Z,13.33
2023-04-18T08:38:30.837Z,13.53
2023-04-18T08:41:35.101Z,13.46
2023-04-18T08:44:38.686Z,13.32
2023-04-18T08:47:42.686Z,13.38
2023-04-18T08:50:47.701Z,13.19
2023-04-18T08:53:53.150Z,13.29
2023-04-18T08:56:57.085Z,13.37
2023-04-18T09:00:01.043Z,13.38
2023-04-18T09:03:04.925Z,13.29
2023-04-18T09:06:08.845Z,13.30
2023-04-18T09:09:13.345Z,13.33
2023-04-18T09:12:17.944Z,13.37
2023-04-18T09:15:21.917Z,13.25
2023-04-18T09:18:26.091Z,13.18
2023-04-18T09:21:30.299Z,12.92
2023-04-18T09:24:34.390Z,12.71
2023-04-18T09:27:38.557Z,12.78
2023-04-18T09:30:42.533Z,13.14
2023-04-18T09:33:46.311Z,13.10
2023-04-18T09:36:50.468Z,13.33
2023-04-18T09:39:54.620Z,13.61
2023-04-18T09:43:01.787Z,13.67
2023-04-18T09:46:06.068Z,13.60
2023-04-18T09:49:11.278Z,13.83
2023-04-18T09:52:18.419Z,13.98
2023-04-18T09:55:22.566Z,13.78
2023-04-18T09:58:26.750Z,13.92
2023-04-18T10:01:32.174Z,13.67
2023-04-18T10:04:36.036Z,13.72
2023-04-18T10:07:39.877Z,13.90
2023-04-18T10:10:45.016Z,14.03
2023-04-18T10:13:49.120Z,13.03
2023-04-18T10:16:53.470Z,13.00
2023-04-18T10:19:59.741Z,13.37
2023-04-18T10:23:03.572Z,13.62
2023-04-18T10:26:07.704Z,13.72
2023-04-18T10:29:12.095Z,13.82
2023-04-18T10:32:16.221Z,14.10
2023-04-18T10:35:20.007Z,13.53
2023-04-18T10:38:23.840Z,13.63
2023-04-18T10:41:27.959Z,13.43
2023-04-18T10:44:32.166Z,12.58
2023-04-18T10:47:37.365Z,13.41
2023-04-18T10:50:42.577Z,13.76
2023-04-18T10:53:49.477Z,13.76
2023-04-18T10:56:53.407Z,14.08
2023-04-18T10:59:57.557Z,13.29
2023-04-18T11:03:01.899Z,13.22
2023-04-18T11:06:05.914Z,13.84
2023-04-18T11:09:10.502Z,13.75
2023-04-18T11:12:14.497Z,13.60
2023-04-18T11:15:18.584Z,13.82
2023-04-18T11:18:22.711Z,13.75
2023-04-18T11:21:28.079Z,13.99
2023-04-18T11:24:33.410Z,13.97
2023-04-18T11:27:37.195Z,13.61
2023-04-18T11:30:41.046Z,14.01
2023-04-18T11:33:47.132Z,14.37
2023-04-18T11:36:51.496Z,13.92
2023-04-18T11:39:55.545Z,14.23
2023-04-18T11:42:59.587Z,14.68
2023-04-18T11:46:03.512Z,14.70
2023-04-18T11:49:07.678Z,14.65
2023-04-18T11:52:13.019Z,14.87
2023-04-18T11:55:17.039Z,14.98
2023-04-18T11:58:20.799Z,15.06
2023-04-18T12:01:24.868Z,15.21
2023-04-18T12:04:28.960Z,15.17
2023-04-18T12:07:32.761Z,14.94
2023-04-18T12:10:37.949Z,15.06
2023-04-18T12:13:42.214Z,15.33
2023-04-18T12:16:46.090Z,15.47
2023-04-18T12:19:50.398Z,15.17
2023-04-18T12:22:54.285Z,15.34
2023-04-18T12:26:00.119Z,16.02
2023-04-18T12:29:04.222Z,15.86
2023-04-18T12:32:08.262Z,15.80
2023-04-18T12:35:12.129Z,15.52
2023-04-18T12:38:16.037Z,16.28
2023-04-18T12:41:19.906Z,16.28
2023-04-18T12:44:23.636Z,16.54
2023-04-18T12:47:27.562Z,16.00
2023-04-18T12:50:31.386Z,16.18
2023-04-18T12:53:36.597Z,15.80
2023-04-18T12:56:40.744Z,15.74
2023-04-18T12:59:44.798Z,16.29
2023-04-18T13:02:48.944Z,16.16
2023-04-18T13:05:53.343Z,16.55
2023-04-18T13:08:57.511Z,16.80
2023-04-18T13:12:02.920Z,16.24
2023-04-18T13:15:07.095Z,16.24
2023-04-18T13:18:11.173Z,15.81
2023-04-18T13:21:16.587Z,16.52
2023-04-18T13:24:20.643Z,16.67
2023-04-18T13:27:30.841Z,16.26
2023-04-18T13:30:36.033Z,15.93
2023-04-18T13:33:40.096Z,16.28
2023-04-18T13:36:45.404Z,16.76
2023-04-18T13:39:50.902Z,16.56
2023-04-18T13:42:55.220Z,16.58
2023-04-18T13:45:59.252Z,16.79
2023-04-18T13:49:03.080Z,16.88
2023-04-18T13:52:06.914Z,17.03
2023-04-18T13:55:12.057Z,16.91
2023-04-18T13:58:16.586Z,16.58
2023-04-18T14:01:20.522Z,16.65
2023-04-18T14:04:26.008Z,16.92
2023-04-18T14:07:31.719Z,16.87
2023-04-18T14:10:35.578Z,17.04
2023-04-18T14:13:41.448Z,17.48
2023-04-18T14:16:45.800Z,17.77
2023-04-18T14:19:51.131Z,17.33
2023-04-18T14:22:58.445Z,17.66
2023-04-18T14:26:04.339Z,17.75
2023-04-18T14:29:08.524Z,17.80
2023-04-18T14:32:12.468Z,18.15
2023-04-18T14:35:16.351Z,17.98
2023-04-18T14:38:22.244Z,18.40
2023-04-18T14:41:26.596Z,17.74
2023-04-18T14:44:30.499Z,17.65
2023-04-18T14:47:35.422Z,17.58
2023-04-18T14:50:39.464Z,18.19
2023-04-18T14:53:43.683Z,18.26
2023-04-18T14:56:47.555Z,18.21
2023-04-18T14:59:51.372Z,18.15
2023-04-18T15:02:55.574Z,18.26
2023-04-18T15:06:03.726Z,18.18
2023-04-18T15:09:09.495Z,17.46
2023-04-18T15:12:13.667Z,17.67
2023-04-18T15:15:18.813Z,17.37
2023-04-18T15:18:24.141Z,17.34
2023-04-18T15:21:28.388Z,17.49
2023-04-18T15:24:33.161Z,17.47
2023-04-18T15:27:37.246Z,17.36
2023-04-18T15:30:43.188Z,17.18
2023-04-18T15:33:48.849Z,17.77
2023-04-18T15:36:56.817Z,17.93
2023-04-18T15:40:02.491Z,17.86
2023-04-18T15:43:06.805Z,17.77
2023-04-18T15:46:13.648Z,17.44
2023-04-18T15:49:17.928Z,17.38
2023-04-18T15:52:22.938Z,17.16
2023-04-18T15:55:27.323Z,16.82
2023-04-18T15:58:31.222Z,16.97
2023-04-18T16:01:35.679Z,16.73
2023-04-18T16:04:39.995Z,17.03
2023-04-18T16:07:46.437Z,17.27
2023-04-18T16:10:51.970Z,17.34
2023-04-18T16:13:59.237Z,17.31
2023-04-18T16:17:03.526Z,17.24
2023-04-18T16:20:07.663Z,17.36
2023-04-18T16:23:11.778Z,17.41
2023-04-18T16:26:16.803Z,17.56
2023-04-18T16:29:20.887Z,17.34
2023-04-18T16:32:24.762Z,17.50
2023-04-18T16:35:30.497Z,17.37
2023-04-18T16:38:34.678Z,17.08
2023-04-18T16:41:38.555Z,17.48
2023-04-18T16:44:42.446Z,17.40
2023-04-18T16:47:50.556Z,17.48
2023-04-18T16:50:59.071Z,17.22
2023-04-18T16:54:03.468Z,17.43
2023-04-18T16:57:07.815Z,17.51
2023-04-18T17:00:14.078Z,17.60
2023-04-18T17:03:17.993Z,17.33
2023-04-18T17:06:22.468Z,17.61
2023-04-18T17:09:27.717Z,17.73
2023-04-18T17:12:31.853Z,17.81
2023-04-18T17:15:36.166Z,17.87
2023-04-18T17:18:40.196Z,18.05
2023-04-18T17:21:44.359Z,18.14
2023-04-18T17:24:49.190Z,18.10
2023-04-18T17:27:53.217Z,17.99
2023-04-18T17:30:57.209Z,17.79
2023-04-18T17:34:01.258Z,17.93
2023-04-18T17:37:06.445Z,17.56
2023-04-18T17:40:10.321Z,17.11
2023-04-18T17:43:14.393Z,17.80
2023-04-18T17:46:18.417Z,17.81
2023-04-18T17:49:23.617Z,17.26
2023-04-18T17:52:27.805Z,17.55
2023-04-18T17:55:32.125Z,17.38
2023-04-18T17:58:36.080Z,17.05
2023-04-18T18:01:40.315Z,16.77
2023-04-18T18:04:44.127Z,16.55
2023-04-18T18:07:48.872Z,16.85
2023-04-18T18:10:56.252Z,16.63
2023-04-18T18:14:00.185Z,16.86
2023-04-18T18:17:04.527Z,16.46
2023-04-18T18:20:08.714Z,15.96
2023-04-18T18:23:12.740Z,16.11
2023-04-18T18:26:16.431Z,16.15
2023-04-18T18:29:21.843Z,15.94
2023-04-18T18:32:32.975Z,15.78
2023-04-18T18:35:38.598Z,15.94
2023-04-18T18:38:53.316Z,15.93
2023-04-18T18:41:57.372Z,16.03
2023-04-18T18:45:01.424Z,15.72
2023-04-18T18:48:07.399Z,15.44
2023-04-18T18:51:11.590Z,15.33
2023-04-18T18:54:15.507Z,15.27
2023-04-18T18:57:19.336Z,15.51
2023-04-18T19:00:23.561Z,15.42
2023-04-18T19:03:27.881Z,15.13
2023-04-18T19:06:31.839Z,15.30
2023-04-18T19:09:36.010Z,15.07
2023-04-18T19:12:39.854Z,14.97
2023-04-18T19:15:44.044Z,15.03
2023-04-18T19:18:48.349Z,14.95
2023-04-18T19:21:52.234Z,14.75
2023-04-18T19:24:55.956Z,14.68
2023-04-18T19:28:00.009Z,14.96
2023-04-18T19:31:04.282Z,14.91
2023-04-18T19:34:08.344Z,14.90
2023-04-18T19:37:12.277Z,14.87
2023-04-18T19:40:16.361Z,14.85
2023-04-18T19:43:20.215Z,14.90
2023-04-18T19:46:24.480Z,14.77
2023-04-18T19:49:28.615Z,14.86
2023-04-18T19:52:32.732Z,15.01
2023-04-18T19:55:36.545Z,15.10
2023-04-18T19:58:41.646Z,15.05
2023-04-18T20:01:49.164Z,15.07
2023-04-18T20:04:53.333Z,15.11
2023-04-18T20:07:57.919Z,14.95
2023-04-18T20:11:01.886Z,14.76
2023-04-18T20:14:07.153Z,14.80
2023-04-18T20:17:11.505Z,14.64
2023-04-18T20:20:18.282Z,14.61
2023-04-18T20:23:22.170Z,14.56
2023-04-18T20:26:26.612Z,14.43
2023-04-18T20:29:31.803Z,14.48
2023-04-18T20:32:35.860Z,14.32
2023-04-18T20:35:40.151Z,14.32
2023-04-18T20:38:44.525Z,14.30
2023-04-18T20:41:48.448Z,14.41
2023-04-18T20:44:54.526Z,14.14
2023-04-18T20:48:00.711Z,14.26
2023-04-18T20:51:04.775Z,14.46
2023-04-18T20:54:08.919Z,14.27
2023-04-18T20:57:13.287Z,14.12
2023-04-18T21:00:17.334Z,14.40
2023-04-18T21:03:21.142Z,14.37
2023-04-18T21:06:25.189Z,14.67
2023-04-18T21:09:31.299Z,14.77
2023-04-18T21:12:36.004Z,14.42
2023-04-18T21:15:40.244Z,14.82
2023-04-18T21:18:48.685Z,14.95
2023-04-18T21:21:52.938Z,14.69
2023-04-18T21:24:57.518Z,14.20
2023-04-18T21:28:02.745Z,14.37
2023-04-18T21:31:06.978Z,14.48
2023-04-18T21:34:11.500Z,14.39
2023-04-18T21:37:15.383Z,14.35
2023-04-18T21:40:19.570Z,14.26
2023-04-18T21:43:23.341Z,13.80
2023-04-18T21:46:30.602Z,14.32
2023-04-18T21:49:36.191Z,13.90
2023-04-18T21:52:41.407Z,14.43
2023-04-18T21:55:45.527Z,14.27
2023-04-18T21:58:55.174Z,14.22
2023-04-18T22:01:59.236Z,14.44
2023-04-18T22:05:03.350Z,13.88
2023-04-18T22:08:11.890Z,14.13
2023-04-18T22:11:16.961Z,14.00
2023-04-18T22:14:21.288Z,14.15
2023-04-18T22:17:25.770Z,14.15
2023-04-18T22:20:30.120Z,14.08
2023-04-18T22:23:34.360Z,13.99
2023-04-18T22:26:38.144Z,13.90
2023-04-18T22:29:44.132Z,13.95
2023-04-18T22:32:48.267Z,13.95
2023-04-18T22:35:55.650Z,13.81
2023-04-18T22:38:59.986Z,13.66
2023-04-18T22:42:06.922Z,13.35
2023-04-18T22:45:10.617Z,13.29
2023-04-18T22:48:14.493Z,13.26
2023-04-18T22:51:23.110Z,13.31
2023-04-18T22:54:27.185Z,13.43
2023-04-18T22:57:31.124Z,13.55
2023-04-18T23:00:35.246Z,13.49
2023-04-18T23:03:41.575Z,13.40
2023-04-18T23:06:45.595Z,13.26
2023-04-18T23:09:49.645Z,13.46
2023-04-18T23:12:53.843Z,13.54
2023-04-18T23:16:04.351Z,13.20
2023-04-18T23:19:08.524Z,13.09
2023-04-18T23:22:12.670Z,13.13
2023-04-18T23:25:16.575Z,12.75
2023-04-18T23:28:20.577Z,12.95
2023-04-18T23:31:24.526Z,13.08
2023-04-18T23:34:30.488Z,13.08
2023-04-18T23:37:37.779Z,13.23
2023-04-18T23:40:45.075Z,13.02
2023-04-18T23:43:53.257Z,13.24
2023-04-18T23:46:58.162Z,13.32
2023-04-18T23:50:01.913Z,13.41
2023-04-18T23:53:05.809Z,13.36
2023-04-18T23:56:09.794Z,13.27
2023-04-18T23:59:13.837Z,13.18
